ベルリン/テーゲル の空港の天気 - METARとTAF

ベルリン・テーゲル国際空港 ( EDDT / TXL ) - ドイツ ベルリン
飛行場実況気象(Metar)
観測時間08/25 20:50 CEST (08/25 18:50 UTC)
風向・風速東 3m/s
視程10km以上
天気現象
なし
気温27℃
湿度42%
気圧1021hPa
METAREDDT 251850Z 08006KT CAVOK 27/13 Q1021 NOSIG
過去の天気等 Google飛行場航空写真 Wunderground天気予報

過去48時間のMETAR

飛行場予報(TAF)
発表時間: 8/25 19:00 CEST (8/25 17:00 UTC)
予報対象時間: 25日20時 CEST ~ 26日20時 CEST
風向・風速東 3m/s
視程10km以上
なし
TAF EDDT 251700Z 2518/2618 09006KT CAVOK